GPS DATA

Sun Jan 21 19:53:29 2018 APRS[EA3ABN-9]Decoded GPS Auto: LAT(N4136.866) LONG(E00205.07) SPEED(0.0) RPT:214302
Sun Jan 21 19:54:28 2018 APRS[EA3ABN-9]Decoded GPS Auto: LAT(N4136.866) LONG(E00205.07) SPEED(0.0) RPT:214302
Sun Jan 21 19:55:28 2018 APRS[EA3ABN-9]Decoded GPS Auto: LAT(N4136.866) LONG(E00205.07) SPEED(0.0) RPT:214302
Sun Jan 21 19:56:27 2018 APRS[EA3ABN-9]Decoded GPS Auto: LAT(N4136.866) LONG(E00205.07) SPEED(0.0) RPT:214302
Sun Jan 21 19:59:00 2018 APRS[EA3ABN-9]Decoded GPS Auto: LAT(N4136.868) LONG(E00205.07) SPEED(0.0) RPT:214302
Sun Jan 21 19:59:53 2018 APRS[EA3ABN-9]Decoded GPS Auto: LAT(N4136.868) LONG(E00205.07) SPEED(0.0) RPT:214302
Sun Jan 21 20:00:28 2018 APRS[EA3ABN-9]Decoded GPS Auto: LAT(N4136.868) LONG(E00205.07) SPEED(0.0) RPT:214302
Sun Jan 21 20:01:32 2018 APRS[EA3ABN-9]Decoded GPS Auto: LAT(N4136.867) LONG(E00205.07) SPEED(0.0) RPT:214302
Sun Jan 21 20:03:33 2018 APRS[EA3ABN-9]Decoded GPS Auto: LAT(N4136.864) LONG(E00205.08) SPEED(0.0) RPT:214302
Sun Jan 21 20:04:28 2018 APRS[EA3ABN-9]Decoded GPS Auto: LAT(N4136.864) LONG(E00205.08) SPEED(0.0) RPT:214302
Sun Jan 21 20:06:29 2018 APRS[EA3ABN-9]Decoded GPS Auto: LAT(N4136.863) LONG(E00205.08) SPEED(0.0) RPT:214302
Sun Jan 21 20:07:28 2018 APRS[EA3ABN-9]Decoded GPS Auto: LAT(N4136.864) LONG(E00205.07) SPEED(0.0) RPT:214302
Sun Jan 21 20:08:28 2018 APRS[EA3ABN-9]Decoded GPS Auto: LAT(N4136.864) LONG(E00205.07) SPEED(0.0) RPT:214302
Sun Jan 21 20:09:29 2018 APRS[EA3ABN-9]Decoded GPS Auto: LAT(N4136.864) LONG(E00205.07) SPEED(0.0) RPT:214302
Sun Jan 21 20:10:28 2018 APRS[EA3ABN-9]Decoded GPS Auto: LAT(N4136.864) LONG(E00205.07) SPEED(0.0) RPT:214302
Sun Jan 21 20:11:28 2018 APRS[EA3ABN-9]Decoded GPS Auto: LAT(N4136.864) LONG(E00205.07) SPEED(0.0) RPT:214302
Sun Jan 21 20:12:29 2018 APRS[EA3ABN-9]Decoded GPS Auto: LAT(N4136.864) LONG(E00205.07) SPEED(0.0) RPT:214302
Sun Jan 21 20:13:28 2018 APRS[EA3ABN-9]Decoded GPS Auto: LAT(N4136.864) LONG(E00205.07) SPEED(0.0) RPT:214302
Sun Jan 21 20:14:28 2018 APRS[EA3ABN-9]Decoded GPS Auto: LAT(N4136.864) LONG(E00205.07) SPEED(0.0) RPT:214302
Sun Jan 21 20:15:28 2018 APRS[EA3ABN-9]Decoded GPS Auto: LAT(N4136.864) LONG(E00205.07) SPEED(0.0) RPT:214302
Sun Jan 21 20:16:28 2018 APRS[EA3ABN-9]Decoded GPS Auto: LAT(N4136.864) LONG(E00205.07) SPEED(0.0) RPT:214302
Sun Jan 21 20:17:28 2018 APRS[EA3ABN-9]Decoded GPS Auto: LAT(N4136.864) LONG(E00205.07) SPEED(0.0) RPT:214302
Sun Jan 21 20:18:28 2018 APRS[EA3ABN-9]Decoded GPS Auto: LAT(N4136.864) LONG(E00205.07) SPEED(0.0) RPT:214302
Sun Jan 21 20:20:44 2018 APRS[EA3ABN-9]Decoded GPS Auto: LAT(N4136.866) LONG(E00205.07) SPEED(0.0) RPT:214302
Sun Jan 21 20:21:28 2018 APRS[EA3ABN-9]Decoded GPS Auto: LAT(N4136.866) LONG(E00205.07) SPEED(0.0) RPT:214302
Sun Jan 21 20:39:15 2018 APRS[EA3HNX-7]Decoded GPS Auto: LAT(N4134.174) LONG(E00205.49) SPEED(1.4) RPT:214302
Sun Jan 21 20:39:17 2018 APRS[EA3HNX-7]Decoded GPS Auto: LAT(N4134.174) LONG(E00205.49) SPEED(1.4) RPT:214302
Sun Jan 21 19:51:28 2018 APRS[EA3ABN-9]Decoded GPS Auto: LAT(N4136.869) LONG(E00205.07) SPEED(0.0) RPT:214302
Sun Jan 21 19:52:32 2018 APRS[EA3ABN-9]Decoded GPS Auto: LAT(N4136.866) LONG(E00205.07) SPEED(0.0) RPT:214302